Decoded Metar for EPZG (ZIELONA GORA in POLAND) (IATA:IEG) | Meteo·Mobile Aviation Weather
aviador You're here:

EPZG Decoded Metar

ZIELONA GORA in POLAND
Report Time2018-09-22 09:00:00
UTC Time2018-09-22 09:32:48
Flight Rules mvfr MVFR
Wind250° at 12 kt
W.Decomp.*RWY 24: 11.9 kt HW 1.5 kt RCW
W.Rank250° ranks 3
Current wind is above 250° avg. (8.3)
Visibility9999 m
Phenomena:N/A
Clouds:Broken 029 Hf
Overcast 049 Hf
Expected CloudBase > 2,800 ft AGL from Temp-Dew spread
Ceiling2,900 ft
Temp14°C (ISA -1)
Dew Point07°C (63% RH)
AAT9.0°C
QNH1018 hPa
Density Alt89 ft
Elevation194 ft
Report Wrong Elevation
Raw Report
METAR EPZG 220900Z 25012KT 210V290 9999 BKN029 OVC049 14/07 Q1018 =

Extra information for EPZG:More info

Metar Taf Metar & Taf Last 4 Metars F.Rules Stats Wind Profile Meteogram Temp Stats Airport Information Weather charts Add Link Nearby VenuesMetar ALERT Operation Metar Decoded Social comments